Aeroporto :
LOGIN :

Iscrizione | Disclaimer

   EN    FR    IT 

 










Sommario :    VFR   VFR Marginale   IFR   IFR Intensivo   IFR Molto Intensivo
Visibilità : 
Base nubi : 
>= 8 km
>= 3000ft
5 / 8 km
1000 / 3000 ft
1500m / 5 km
500 / 1000 ft
800 / 1500m
200 / 500 ft
< 800m
< 200 ft
Simboli :   Temporali  Nebbia  Neve Forte  Precipitazioni Forti  Vento > 20 kt
SIGMETs :   Varie  Temporali  Ghiacco  Turbolenza  Onda orograficha  Ceneri Vulcaniche






- Altitudine del aeroporto : 135 ft
- Codice IATA : EDI


EGPH - Edinburgh

ULTIMO METAR :
  • 301920Z 08003KT 9999 FEW014 SCT044 06/05 Q1037

METARs OBSOLETI :
  • 301850Z 06005KT 9999 BKN027 OVC043 07/06 Q1037
  • 301820Z 07006KT 9999 -RA FEW027 OVC039 07/06 Q1037
  • 301750Z 07004KT 9999 BKN036 09/05 Q1037
  • 301720Z 11006KT 9999 FEW008 SCT036 09/05 Q1037
  • 301650Z 05010KT 010V080 9999 -SHRA FEW015 SCT049 11/04 Q1036

TAF TAF EGPH
Valido dal 30 a 18 ore il 31 a 18 ore UTC


301657Z 3018/3118 02005KT 9999 SCT045
PROB30
TEMPO 3018/3103 6000 SHRA BKN014
ATIS : +44 131 339 2823



MetMap, La meteo Aeronautica in un colpo d'occhio ! - Copyright ORBIFLY Dicembre 2007 - Disclaimer

ORBIFLY MET'MAP TEAM :

Programmazione e sviluppo : Alexandra Zaïnal
Concezione : Baudouin d'Aumeries
Aiuto per la programmazione : Marc-Olivier Méhu
Supporto tecnico e logistico : Manuel Goepfert
Aiuto per la traduzione : Arnaldo La Scala

Contatto : metmap@orbifly.com




FONTI E CREDITI :

   NOAA